createdAt,value
2022-12-28T00:00:46.255Z,6.10
2022-12-28T00:03:31.729Z,6.63
2022-12-28T00:06:18.582Z,6.45
2022-12-28T00:09:03.900Z,6.40
2022-12-28T00:11:49.526Z,6.25
2022-12-28T00:14:35.228Z,6.57
2022-12-28T00:17:21.023Z,6.25
2022-12-28T00:20:08.372Z,7.00
2022-12-28T00:22:53.848Z,6.78
2022-12-28T00:25:39.402Z,6.07
2022-12-28T00:28:24.846Z,5.63
2022-12-28T00:31:10.678Z,5.90
2022-12-28T00:33:56.240Z,6.65
2022-12-28T00:37:09.758Z,7.50
2022-12-28T00:39:48.132Z,6.30
2022-12-28T00:42:33.757Z,6.03
2022-12-28T00:45:25.063Z,6.78
2022-12-28T00:48:14.379Z,6.45
2022-12-28T00:51:09.562Z,7.20
2022-12-28T00:56:43.049Z,6.40
2022-12-28T00:59:28.399Z,6.57
2022-12-28T01:02:13.954Z,6.95
2022-12-28T01:04:59.950Z,6.68
2022-12-28T01:07:45.416Z,6.80
2022-12-28T01:10:30.724Z,6.72
2022-12-28T01:13:16.206Z,7.43
2022-12-28T01:16:01.754Z,7.55
2022-12-28T01:18:50.121Z,7.82
2022-12-28T01:21:37.271Z,6.97
2022-12-28T01:24:22.814Z,6.97
2022-12-28T01:27:10.801Z,7.60
2022-12-28T01:29:57.112Z,7.45
2022-12-28T01:32:42.532Z,7.25
2022-12-28T01:35:28.131Z,7.95
2022-12-28T01:38:13.472Z,7.80
2022-12-28T01:40:58.775Z,6.03
2022-12-28T01:43:53.497Z,7.38
2022-12-28T01:46:48.054Z,6.03
2022-12-28T01:49:40.056Z,7.07
2022-12-28T01:52:34.051Z,7.20
2022-12-28T01:55:27.473Z,7.05
2022-12-28T01:58:24.121Z,6.15
2022-12-28T02:01:09.902Z,7.38
2022-12-28T02:03:55.224Z,7.07
2022-12-28T02:06:43.885Z,6.72
2022-12-28T02:09:39.131Z,7.53
2022-12-28T02:12:28.601Z,6.47
2022-12-28T02:15:18.344Z,7.47
2022-12-28T02:18:10.031Z,7.03
2022-12-28T02:21:17.975Z,7.10
2022-12-28T02:24:40.964Z,6.85
2022-12-28T02:27:44.998Z,7.68
2022-12-28T02:30:34.775Z,6.75
2022-12-28T02:33:49.730Z,6.57
2022-12-28T02:36:41.710Z,6.80
2022-12-28T02:39:38.000Z,7.15
2022-12-28T02:42:25.340Z,7.50
2022-12-28T02:45:52.913Z,7.47
2022-12-28T02:49:05.452Z,7.82
2022-12-28T02:52:22.813Z,6.50
2022-12-28T02:55:51.300Z,7.50
2022-12-28T02:58:53.957Z,5.85
2022-12-28T03:02:14.357Z,7.53
2022-12-28T03:05:15.193Z,5.65
2022-12-28T03:08:20.256Z,6.32
2022-12-28T03:11:10.525Z,6.20
2022-12-28T03:14:07.643Z,6.10
2022-12-28T03:17:16.788Z,6.22
2022-12-28T03:20:27.098Z,6.15
2022-12-28T03:23:34.877Z,5.97
2022-12-28T03:26:42.249Z,6.35
2022-12-28T03:29:51.664Z,6.90
2022-12-28T03:32:37.185Z,6.55
2022-12-28T03:35:29.920Z,6.32
2022-12-28T03:38:42.340Z,6.85
2022-12-28T03:41:45.485Z,6.80
2022-12-28T03:44:53.839Z,6.25
2022-12-28T03:47:41.587Z,7.03
2022-12-28T03:50:29.095Z,6.30
2022-12-28T03:53:16.406Z,6.57
2022-12-28T03:56:17.698Z,6.45
2022-12-28T03:59:04.242Z,5.53
2022-12-28T04:02:01.205Z,6.20
2022-12-28T04:07:55.371Z,5.85
2022-12-28T04:10:41.817Z,6.22
2022-12-28T04:13:31.839Z,4.95
2022-12-28T04:16:23.690Z,6.50
2022-12-28T04:19:12.338Z,5.20
2022-12-28T04:22:01.210Z,5.43
2022-12-28T04:24:48.759Z,4.88
2022-12-28T04:27:34.729Z,5.47
2022-12-28T04:30:26.928Z,4.65
2022-12-28T04:33:12.681Z,5.43
2022-12-28T04:36:09.343Z,5.68
2022-12-28T04:38:54.841Z,5.15
2022-12-28T04:42:05.325Z,4.78
2022-12-28T04:44:50.763Z,5.13
2022-12-28T04:47:36.209Z,4.80
2022-12-28T04:50:25.001Z,4.72
2022-12-28T04:53:10.469Z,4.78
2022-12-28T04:56:00.779Z,4.63
2022-12-28T04:58:49.517Z,3.90
2022-12-28T05:01:35.025Z,4.35
2022-12-28T05:04:20.690Z,4.60
2022-12-28T05:07:06.315Z,4.47
2022-12-28T05:09:54.243Z,4.25
2022-12-28T05:12:39.809Z,3.35
2022-12-28T05:15:25.244Z,5.20
2022-12-28T05:18:10.859Z,4.22
2022-12-28T05:21:15.923Z,4.60
2022-12-28T05:24:01.422Z,4.53
2022-12-28T05:26:46.935Z,4.32
2022-12-28T05:29:34.971Z,4.03
2022-12-28T05:32:20.238Z,5.38
2022-12-28T05:35:06.268Z,4.47
2022-12-28T05:37:53.411Z,4.35
2022-12-28T05:40:38.946Z,4.43
2022-12-28T05:43:25.293Z,4.80
2022-12-28T05:46:24.737Z,4.07
2022-12-28T05:49:10.229Z,4.40
2022-12-28T05:51:55.774Z,4.28
2022-12-28T05:54:41.186Z,4.95
2022-12-28T05:57:26.873Z,4.45
2022-12-28T06:00:12.725Z,4.22
2022-12-28T06:02:58.205Z,4.28
2022-12-28T06:05:43.559Z,4.00
2022-12-28T06:08:29.200Z,4.10
2022-12-28T06:11:20.337Z,4.50
2022-12-28T06:14:06.680Z,4.22
2022-12-28T06:16:55.110Z,3.15
2022-12-28T06:19:41.473Z,3.45
2022-12-28T06:22:27.636Z,4.43
2022-12-28T06:25:13.258Z,4.30
2022-12-28T06:27:58.589Z,4.40
2022-12-28T06:30:48.972Z,4.78
2022-12-28T06:33:37.548Z,4.57
2022-12-28T06:36:32.050Z,3.50
2022-12-28T06:39:23.432Z,4.00
2022-12-28T06:42:08.896Z,4.55
2022-12-28T06:44:54.212Z,4.30
2022-12-28T06:47:40.216Z,4.68
2022-12-28T06:50:25.494Z,4.40
2022-12-28T06:53:11.041Z,4.38
2022-12-28T06:55:58.761Z,4.60
2022-12-28T06:58:45.677Z,3.95
2022-12-28T07:01:36.899Z,3.85
2022-12-28T07:04:22.725Z,4.22
2022-12-28T07:07:09.340Z,4.05
2022-12-28T07:09:55.159Z,3.30
2022-12-28T07:12:40.823Z,3.33
2022-12-28T07:15:26.164Z,3.35
2022-12-28T07:18:12.170Z,3.95
2022-12-28T07:21:03.973Z,3.60
2022-12-28T07:23:51.472Z,4.00
2022-12-28T07:26:37.948Z,4.32
2022-12-28T07:29:27.006Z,4.15
2022-12-28T07:32:12.544Z,3.25
2022-12-28T07:34:57.987Z,4.60
2022-12-28T07:37:43.505Z,3.55
2022-12-28T07:40:29.086Z,3.88
2022-12-28T07:43:14.542Z,4.05
2022-12-28T07:46:04.871Z,3.70
2022-12-28T07:48:51.327Z,4.05
2022-12-28T07:51:41.234Z,3.72
2022-12-28T07:54:29.826Z,3.90
2022-12-28T07:57:16.018Z,3.70
2022-12-28T08:00:02.669Z,3.80
2022-12-28T08:03:00.702Z,3.20
2022-12-28T08:05:46.723Z,4.00
2022-12-28T08:08:43.065Z,3.28
2022-12-28T08:11:32.042Z,3.10
2022-12-28T08:14:17.281Z,3.42
2022-12-28T08:17:02.782Z,3.72
2022-12-28T08:19:49.999Z,3.13
2022-12-28T08:22:35.164Z,3.30
2022-12-28T08:25:23.504Z,4.80
2022-12-28T08:28:09.048Z,2.55
2022-12-28T08:30:57.237Z,3.30
2022-12-28T08:33:43.245Z,3.47
2022-12-28T08:36:32.287Z,3.38
2022-12-28T08:39:18.060Z,4.03
2022-12-28T08:42:03.954Z,3.60
2022-12-28T08:44:49.574Z,3.80
2022-12-28T08:47:35.086Z,3.80
2022-12-28T08:50:25.011Z,3.50
2022-12-28T08:53:13.930Z,3.92
2022-12-28T08:56:07.079Z,3.63
2022-12-28T08:58:53.751Z,4.13
2022-12-28T09:01:45.986Z,3.58
2022-12-28T09:04:31.247Z,3.90
2022-12-28T09:07:16.718Z,3.70
2022-12-28T09:10:02.202Z,3.28
2022-12-28T09:12:53.720Z,3.67
2022-12-28T09:15:39.405Z,3.70
2022-12-28T09:18:27.570Z,3.13
2022-12-28T09:21:18.604Z,4.03
2022-12-28T09:24:04.468Z,3.70
2022-12-28T09:26:52.975Z,3.58
2022-12-28T09:29:41.697Z,4.25
2022-12-28T09:32:27.217Z,3.97
2022-12-28T09:35:12.695Z,3.92
2022-12-28T09:37:58.054Z,3.08
2022-12-28T09:40:44.591Z,3.20
2022-12-28T09:43:33.220Z,3.72
2022-12-28T09:46:20.940Z,3.90
2022-12-28T09:49:14.787Z,3.28
2022-12-28T09:52:15.392Z,3.33
2022-12-28T09:55:12.751Z,3.50
2022-12-28T09:57:59.641Z,4.07
2022-12-28T10:00:52.513Z,4.13
2022-12-28T10:03:40.789Z,3.75
2022-12-28T10:06:36.774Z,2.85
2022-12-28T10:09:33.300Z,3.15
2022-12-28T10:12:22.615Z,2.63
2022-12-28T10:15:14.113Z,2.72
2022-12-28T10:17:59.434Z,2.92
2022-12-28T10:20:45.536Z,2.65
2022-12-28T10:23:33.940Z,3.22
2022-12-28T10:26:20.758Z,3.00
2022-12-28T10:29:32.420Z,3.83
2022-12-28T10:32:17.753Z,2.50
2022-12-28T10:35:03.514Z,3.72
2022-12-28T10:37:48.980Z,4.22
2022-12-28T10:40:38.364Z,4.10
2022-12-28T10:43:27.689Z,5.32
2022-12-28T10:46:18.800Z,4.93
2022-12-28T10:49:08.626Z,6.60
2022-12-28T10:52:11.132Z,5.25
2022-12-28T10:55:07.544Z,5.70
2022-12-28T10:58:28.768Z,6.47
2022-12-28T11:01:15.923Z,5.18
2022-12-28T11:04:16.340Z,4.47
2022-12-28T11:07:03.647Z,4.50
2022-12-28T11:09:52.976Z,5.45
2022-12-28T11:12:44.678Z,3.40
2022-12-28T11:15:34.958Z,3.50
2022-12-28T11:18:23.798Z,4.50
2022-12-28T11:21:17.042Z,4.43
2022-12-28T11:24:03.769Z,4.47
2022-12-28T11:26:50.696Z,3.72
2022-12-28T11:29:37.444Z,4.25
2022-12-28T11:32:36.415Z,3.97
2022-12-28T11:35:26.732Z,3.88
2022-12-28T11:38:42.552Z,3.40
2022-12-28T11:41:39.185Z,3.72
2022-12-28T11:44:48.972Z,3.90
2022-12-28T11:47:35.452Z,4.60
2022-12-28T11:50:38.308Z,3.97
2022-12-28T11:53:44.216Z,3.70
2022-12-28T11:56:44.815Z,3.83
2022-12-28T11:59:33.925Z,4.18
2022-12-28T12:02:28.501Z,4.40
2022-12-28T12:05:38.980Z,3.75
2022-12-28T12:08:26.177Z,4.70
2022-12-28T12:11:31.773Z,4.57
2022-12-28T12:14:31.465Z,4.32
2022-12-28T12:17:44.915Z,3.92
2022-12-28T12:21:10.090Z,4.75
2022-12-28T12:24:05.022Z,4.90
2022-12-28T12:26:58.124Z,3.85
2022-12-28T12:30:04.780Z,3.65
2022-12-28T12:33:02.883Z,3.67
2022-12-28T12:36:11.365Z,4.28
2022-12-28T12:39:26.466Z,3.25
2022-12-28T12:42:52.772Z,4.20
2022-12-28T12:46:18.614Z,4.45
2022-12-28T12:49:18.490Z,4.57
2022-12-28T12:52:09.991Z,4.28
2022-12-28T12:55:22.966Z,3.72
2022-12-28T12:58:30.460Z,4.20
2022-12-28T13:01:45.100Z,3.97
2022-12-28T13:04:35.226Z,3.67
2022-12-28T13:07:28.589Z,4.47
2022-12-28T13:10:38.498Z,5.28
2022-12-28T13:13:48.694Z,4.40
2022-12-28T13:16:34.204Z,4.22
2022-12-28T13:19:23.417Z,4.43
2022-12-28T13:22:30.301Z,4.30
2022-12-28T13:25:30.857Z,4.80
2022-12-28T13:28:27.997Z,4.28
2022-12-28T13:31:20.659Z,4.05
2022-12-28T13:34:35.385Z,3.67
2022-12-28T13:37:22.033Z,3.13
2022-12-28T13:40:16.539Z,3.00
2022-12-28T13:43:45.700Z,3.22
2022-12-28T13:46:37.537Z,3.30
2022-12-28T13:49:25.198Z,3.58
2022-12-28T13:52:20.661Z,3.63
2022-12-28T13:55:23.270Z,3.78
2022-12-28T13:58:24.433Z,3.05
2022-12-28T14:01:17.270Z,3.20
2022-12-28T14:04:51.300Z,3.33
2022-12-28T14:07:19.269Z,3.08
2022-12-28T14:10:05.058Z,3.63
2022-12-28T14:13:12.040Z,3.00
2022-12-28T14:15:58.258Z,3.25
2022-12-28T14:18:49.128Z,3.17
2022-12-28T14:21:41.765Z,3.00
2022-12-28T14:24:27.208Z,3.15
2022-12-28T14:27:17.255Z,4.20
2022-12-28T14:30:06.823Z,3.20
2022-12-28T14:32:53.520Z,3.60
2022-12-28T14:35:48.385Z,3.20
2022-12-28T14:38:48.424Z,2.78
2022-12-28T14:41:38.438Z,2.97
2022-12-28T14:44:52.500Z,3.53
2022-12-28T14:47:54.773Z,3.38
2022-12-28T14:50:57.284Z,3.13
2022-12-28T14:53:43.636Z,3.50
2022-12-28T14:56:34.715Z,3.17
2022-12-28T14:59:35.836Z,3.40
2022-12-28T15:02:33.698Z,3.40
2022-12-28T15:05:44.575Z,3.25
2022-12-28T15:08:30.141Z,3.08
2022-12-28T15:11:24.315Z,3.15
2022-12-28T15:14:12.286Z,3.50
2022-12-28T15:16:57.768Z,2.50
2022-12-28T15:19:47.600Z,3.20
2022-12-28T15:22:33.159Z,3.20
2022-12-28T15:25:18.624Z,3.17
2022-12-28T15:28:04.480Z,2.67
2022-12-28T15:30:50.035Z,2.90
2022-12-28T15:33:35.749Z,3.45
2022-12-28T15:36:22.187Z,3.15
2022-12-28T15:39:07.520Z,3.15
2022-12-28T15:41:52.861Z,3.17
2022-12-28T15:44:38.447Z,3.20
2022-12-28T15:47:24.040Z,3.22
2022-12-28T15:50:10.050Z,2.75
2022-12-28T15:52:55.675Z,2.45
2022-12-28T15:55:41.201Z,3.08
2022-12-28T15:58:28.623Z,2.90
2022-12-28T16:01:14.452Z,3.05
2022-12-28T16:04:02.026Z,2.80
2022-12-28T16:06:52.678Z,3.10
2022-12-28T16:09:38.316Z,3.60
2022-12-28T16:12:23.524Z,4.55
2022-12-28T16:15:12.152Z,3.95
2022-12-28T16:18:06.731Z,3.45
2022-12-28T16:21:02.618Z,3.65
2022-12-28T16:23:48.148Z,3.00
2022-12-28T16:26:35.340Z,3.63
2022-12-28T16:29:20.953Z,3.67
2022-12-28T16:32:06.894Z,3.38
2022-12-28T16:34:57.029Z,4.07
2022-12-28T16:37:43.500Z,4.28
2022-12-28T16:40:29.277Z,4.55
2022-12-28T16:43:19.386Z,3.90
2022-12-28T16:46:07.023Z,4.20
2022-12-28T16:48:52.593Z,4.40
2022-12-28T16:51:39.750Z,3.90
2022-12-28T16:54:27.425Z,3.85
2022-12-28T16:57:16.090Z,3.88
2022-12-28T17:00:01.625Z,4.55
2022-12-28T17:02:47.576Z,4.25
2022-12-28T17:05:35.047Z,5.00
2022-12-28T17:08:23.332Z,4.95
2022-12-28T17:11:10.502Z,4.45
2022-12-28T17:14:07.978Z,4.57
2022-12-28T17:16:53.647Z,4.70
2022-12-28T17:19:41.751Z,4.78
2022-12-28T17:22:27.352Z,5.90
2022-12-28T17:25:15.641Z,5.32
2022-12-28T17:28:04.501Z,4.85
2022-12-28T17:30:50.729Z,5.53
2022-12-28T17:33:42.241Z,6.03
2022-12-28T17:36:27.790Z,6.03
2022-12-28T17:39:13.293Z,6.10
2022-12-28T17:42:04.029Z,5.25
2022-12-28T17:44:49.478Z,5.85
2022-12-28T17:47:35.043Z,4.50
2022-12-28T17:50:23.948Z,4.72
2022-12-28T17:53:10.165Z,5.43
2022-12-28T17:56:09.539Z,7.22
2022-12-28T17:58:59.049Z,7.05
2022-12-28T18:01:44.543Z,5.70
2022-12-28T18:04:30.900Z,8.25
2022-12-28T18:07:16.446Z,6.88
2022-12-28T18:10:02.133Z,7.85
2022-12-28T18:12:50.274Z,7.05
2022-12-28T18:15:35.929Z,7.22
2022-12-28T18:18:21.918Z,5.88
2022-12-28T18:21:12.451Z,5.82
2022-12-28T18:24:02.030Z,6.65
2022-12-28T18:26:47.699Z,7.05
2022-12-28T18:29:33.419Z,7.38
2022-12-28T18:32:19.119Z,7.13
2022-12-28T18:35:08.229Z,6.95
2022-12-28T18:37:56.777Z,7.75
2022-12-28T18:40:44.990Z,7.45
2022-12-28T18:43:35.529Z,4.90
2022-12-28T18:46:21.179Z,5.70
2022-12-28T18:49:06.934Z,7.40
2022-12-28T18:51:52.219Z,5.78
2022-12-28T18:54:40.190Z,5.63
2022-12-28T18:57:31.121Z,5.90
2022-12-28T19:00:16.883Z,4.47
2022-12-28T19:03:13.597Z,5.43
2022-12-28T19:06:03.078Z,5.68
2022-12-28T19:08:48.967Z,5.93
2022-12-28T19:11:35.597Z,5.60
2022-12-28T19:14:21.194Z,5.53
2022-12-28T19:17:06.811Z,6.82
2022-12-28T19:19:55.325Z,6.70
2022-12-28T19:22:41.099Z,6.57
2022-12-28T19:25:28.728Z,6.20
2022-12-28T19:28:14.571Z,6.20
2022-12-28T19:31:04.808Z,6.57
2022-12-28T19:33:50.913Z,6.88
2022-12-28T19:36:37.397Z,5.15
2022-12-28T19:39:25.644Z,6.13
2022-12-28T19:42:13.285Z,8.43
2022-12-28T19:45:04.835Z,6.35
2022-12-28T19:47:53.695Z,6.07
2022-12-28T19:50:39.525Z,5.55
2022-12-28T19:53:25.359Z,5.97
2022-12-28T19:56:16.841Z,6.50
2022-12-28T19:59:07.016Z,6.22
2022-12-28T20:01:55.776Z,5.40
2022-12-28T20:04:44.113Z,6.38
2022-12-28T20:07:29.660Z,5.45
2022-12-28T20:10:15.257Z,5.80
2022-12-28T20:13:00.730Z,6.20
2022-12-28T20:15:49.023Z,4.47
2022-12-28T20:18:35.658Z,4.85
2022-12-28T20:21:25.672Z,4.50
2022-12-28T20:24:12.680Z,4.40
2022-12-28T20:27:01.889Z,4.07
2022-12-28T20:29:48.112Z,3.75
2022-12-28T20:32:42.762Z,3.70
2022-12-28T20:35:30.111Z,3.90
2022-12-28T20:38:18.331Z,3.95
2022-12-28T20:41:37.094Z,3.45
2022-12-28T20:44:28.378Z,3.80
2022-12-28T20:47:16.176Z,3.90
2022-12-28T20:50:03.840Z,3.80
2022-12-28T20:52:53.428Z,3.92
2022-12-28T20:55:38.986Z,3.17
2022-12-28T20:58:24.654Z,3.85
2022-12-28T21:01:12.591Z,3.97
2022-12-28T21:04:03.629Z,3.42
2022-12-28T21:06:49.508Z,2.97
2022-12-28T21:09:34.720Z,4.25
2022-12-28T21:12:20.273Z,3.47
2022-12-28T21:15:08.635Z,3.45
2022-12-28T21:17:55.728Z,3.40
2022-12-28T21:20:54.635Z,3.42
2022-12-28T21:23:40.672Z,3.72
2022-12-28T21:26:26.371Z,3.30
2022-12-28T21:29:11.584Z,3.97
2022-12-28T21:32:00.386Z,3.20
2022-12-28T21:34:45.713Z,3.47
2022-12-28T21:37:34.200Z,3.92
2022-12-28T21:40:22.345Z,3.83
2022-12-28T21:43:07.936Z,4.25
2022-12-28T21:46:01.860Z,4.60
2022-12-28T21:48:47.742Z,4.00
2022-12-28T21:51:37.435Z,4.15
2022-12-28T21:54:23.217Z,3.53
2022-12-28T21:57:11.295Z,4.50
2022-12-28T22:00:19.799Z,4.90
2022-12-28T22:03:24.610Z,4.82
2022-12-28T22:06:09.918Z,5.85
2022-12-28T22:09:17.196Z,6.93
2022-12-28T22:12:23.336Z,5.90
2022-12-28T22:15:36.432Z,6.43
2022-12-28T22:21:33.315Z,6.13
2022-12-28T22:24:18.795Z,6.40
2022-12-28T22:27:04.256Z,5.15
2022-12-28T22:29:50.064Z,5.00
2022-12-28T22:32:35.464Z,4.50
2022-12-28T22:35:21.603Z,3.80
2022-12-28T22:38:08.354Z,4.78
2022-12-28T22:41:02.573Z,5.43
2022-12-28T22:43:52.021Z,4.43
2022-12-28T22:46:37.628Z,4.93
2022-12-28T22:49:23.361Z,4.22
2022-12-28T22:52:11.216Z,3.88
2022-12-28T22:54:56.765Z,3.88
2022-12-28T22:57:42.264Z,3.80
2022-12-28T23:00:27.548Z,3.30
2022-12-28T23:03:13.555Z,3.10
2022-12-28T23:06:14.396Z,3.08
2022-12-28T23:09:00.272Z,2.85
2022-12-28T23:11:50.509Z,3.13
2022-12-28T23:14:54.540Z,2.85
2022-12-28T23:17:41.469Z,2.88
2022-12-28T23:20:45.329Z,2.80
2022-12-28T23:23:54.512Z,2.65
2022-12-28T23:26:58.198Z,2.63
2022-12-28T23:29:44.208Z,2.80
2022-12-28T23:32:29.812Z,2.55
2022-12-28T23:35:16.369Z,4.15
2022-12-28T23:38:01.958Z,2.88
2022-12-28T23:41:07.599Z,2.78
2022-12-28T23:43:52.984Z,2.17
2022-12-28T23:46:39.081Z,2.40
2022-12-28T23:49:27.334Z,2.20
2022-12-28T23:52:12.600Z,2.40
2022-12-28T23:54:58.877Z,2.10
2022-12-28T23:57:44.189Z,2.33
